createdAt,value
2023-01-04T00:01:31.094Z,100.00
2023-01-04T00:03:58.091Z,100.00
2023-01-04T00:06:24.890Z,100.00
2023-01-04T00:08:51.695Z,100.00
2023-01-04T00:11:21.367Z,100.00
2023-01-04T00:13:50.296Z,100.00
2023-01-04T00:16:20.037Z,100.00
2023-01-04T00:18:47.192Z,100.00
2023-01-04T00:21:22.640Z,100.00
2023-01-04T00:23:52.583Z,100.00
2023-01-04T00:28:57.106Z,100.00
2023-01-04T00:31:25.015Z,100.00
2023-01-04T00:33:56.445Z,100.00
2023-01-04T00:36:23.611Z,100.00
2023-01-04T00:39:08.150Z,100.00
2023-01-04T00:42:00.934Z,100.00
2023-01-04T00:44:30.521Z,100.00
2023-01-04T00:46:58.856Z,100.00
2023-01-04T00:49:27.315Z,100.00
2023-01-04T00:51:54.865Z,100.00
2023-01-04T00:54:22.058Z,100.00
2023-01-04T00:56:49.310Z,100.00
2023-01-04T00:59:18.408Z,100.00
2023-01-04T01:01:45.443Z,100.00
2023-01-04T01:04:14.710Z,100.00
2023-01-04T01:06:41.965Z,100.00
2023-01-04T01:09:09.448Z,100.00
2023-01-04T01:11:38.435Z,100.00
2023-01-04T01:14:06.099Z,100.00
2023-01-04T01:19:19.882Z,100.00
2023-01-04T01:21:46.591Z,100.00
2023-01-04T01:24:18.485Z,100.00
2023-01-04T01:26:45.188Z,100.00
2023-01-04T01:29:11.880Z,100.00
2023-01-04T01:31:38.658Z,100.00
2023-01-04T01:34:05.374Z,100.00
2023-01-04T01:36:32.146Z,100.00
2023-01-04T01:38:59.599Z,100.00
2023-01-04T01:43:54.160Z,100.00
2023-01-04T01:46:26.508Z,100.00
2023-01-04T01:48:59.166Z,100.00
2023-01-04T01:51:26.377Z,100.00
2023-01-04T01:53:59.596Z,100.00
2023-01-04T01:56:26.364Z,100.00
2023-01-04T01:58:55.436Z,100.00
2023-01-04T02:01:22.416Z,100.00
2023-01-04T02:03:49.236Z,100.00
2023-01-04T02:06:24.181Z,100.00
2023-01-04T02:08:50.932Z,100.00
2023-01-04T02:11:17.642Z,100.00
2023-01-04T02:14:03.460Z,100.00
2023-01-04T02:16:56.645Z,100.00
2023-01-04T02:19:27.473Z,100.00
2023-01-04T02:22:24.909Z,100.00
2023-01-04T02:28:00.721Z,100.00
2023-01-04T02:30:45.830Z,100.00
2023-01-04T02:33:27.512Z,100.00
2023-01-04T02:36:06.083Z,100.00
2023-01-04T02:39:04.101Z,100.00
2023-01-04T02:41:58.387Z,100.00
2023-01-04T02:44:26.441Z,100.00
2023-01-04T02:47:04.949Z,100.00
2023-01-04T02:49:50.615Z,100.00
2023-01-04T02:52:18.293Z,100.00
2023-01-04T02:54:48.840Z,100.00
2023-01-04T02:57:15.367Z,100.00
2023-01-04T03:00:00.408Z,100.00
2023-01-04T03:03:09.625Z,100.00
2023-01-04T03:06:01.740Z,100.00
2023-01-04T03:08:41.407Z,100.00
2023-01-04T03:11:27.327Z,100.00
2023-01-04T03:13:57.972Z,100.00
2023-01-04T03:16:27.385Z,100.00
2023-01-04T03:18:57.971Z,100.00
2023-01-04T03:21:27.433Z,100.00
2023-01-04T03:24:16.062Z,100.00
2023-01-04T03:27:07.458Z,100.00
2023-01-04T03:30:27.336Z,100.00
2023-01-04T03:36:07.081Z,100.00
2023-01-04T03:39:04.910Z,100.00
2023-01-04T03:42:18.175Z,100.00
2023-01-04T03:45:14.427Z,100.00
2023-01-04T03:48:18.676Z,100.00
2023-01-04T03:50:51.531Z,100.00
2023-01-04T03:53:19.271Z,100.00
2023-01-04T03:55:47.651Z,100.00
2023-01-04T03:58:15.009Z,100.00
2023-01-04T04:00:42.047Z,100.00
2023-01-04T04:03:08.995Z,100.00
2023-01-04T04:05:57.896Z,100.00
2023-01-04T04:08:24.907Z,100.00
2023-01-04T04:10:51.885Z,100.00
2023-01-04T04:13:18.491Z,100.00
2023-01-04T04:15:45.424Z,100.00
2023-01-04T04:18:12.104Z,100.00
2023-01-04T04:20:38.973Z,100.00
2023-01-04T04:23:06.209Z,100.00
2023-01-04T04:25:32.891Z,100.00
2023-01-04T04:27:59.577Z,100.00
2023-01-04T04:30:27.355Z,100.00
2023-01-04T04:32:53.987Z,100.00
2023-01-04T04:35:20.675Z,100.00
2023-01-04T04:37:47.395Z,100.00
2023-01-04T04:40:27.380Z,100.00
2023-01-04T04:42:54.090Z,100.00
2023-01-04T04:45:20.810Z,100.00
2023-01-04T04:47:47.520Z,100.00
2023-01-04T04:50:14.416Z,100.00
2023-01-04T04:52:41.750Z,100.00
2023-01-04T04:55:08.592Z,100.00
2023-01-04T04:57:35.267Z,100.00
2023-01-04T05:00:02.035Z,100.00
2023-01-04T05:02:28.709Z,100.00
2023-01-04T05:04:55.508Z,100.00
2023-01-04T05:07:22.134Z,100.00
2023-01-04T05:09:48.793Z,100.00
2023-01-04T05:12:27.503Z,100.00
2023-01-04T05:14:54.166Z,100.00
2023-01-04T05:17:21.345Z,100.00
2023-01-04T05:19:48.194Z,98.79
2023-01-04T05:22:14.851Z,98.89
2023-01-04T05:24:41.490Z,99.54
2023-01-04T05:27:08.173Z,99.24
2023-01-04T05:29:53.218Z,98.46
2023-01-04T05:32:19.848Z,98.44
2023-01-04T05:34:46.447Z,97.34
2023-01-04T05:37:13.111Z,97.58
2023-01-04T05:39:39.782Z,96.82
2023-01-04T05:42:24.895Z,96.31
2023-01-04T05:44:52.522Z,94.81
2023-01-04T05:47:19.143Z,94.16
2023-01-04T05:49:45.869Z,93.74
2023-01-04T05:52:12.602Z,93.57
2023-01-04T05:54:39.613Z,94.31
2023-01-04T05:57:06.884Z,95.05
2023-01-04T05:59:40.887Z,94.86
2023-01-04T06:02:14.637Z,93.24
2023-01-04T06:04:41.554Z,94.94
2023-01-04T06:07:08.403Z,94.17
2023-01-04T06:09:34.995Z,93.59
2023-01-04T06:12:01.774Z,94.59
2023-01-04T06:14:28.422Z,94.49
2023-01-04T06:16:55.224Z,94.54
2023-01-04T06:19:21.923Z,94.54
2023-01-04T06:21:48.667Z,95.31
2023-01-04T06:24:15.425Z,95.18
2023-01-04T06:26:42.070Z,93.96
2023-01-04T06:29:08.925Z,94.63
2023-01-04T06:31:35.841Z,95.38
2023-01-04T06:34:02.901Z,95.27
2023-01-04T06:36:29.823Z,95.04
2023-01-04T06:39:00.761Z,95.01
2023-01-04T06:41:27.563Z,95.15
2023-01-04T06:43:54.164Z,94.58
2023-01-04T06:46:20.935Z,94.10
2023-01-04T06:48:47.584Z,94.22
2023-01-04T06:51:14.295Z,94.52
2023-01-04T06:53:41.499Z,93.91
2023-01-04T06:56:09.691Z,93.81
2023-01-04T06:58:36.826Z,94.58
2023-01-04T07:01:03.962Z,94.40
2023-01-04T07:03:30.683Z,94.18
2023-01-04T07:05:57.448Z,95.05
2023-01-04T07:08:24.214Z,93.24
2023-01-04T07:10:51.030Z,94.56
2023-01-04T07:13:17.875Z,94.36
2023-01-04T07:15:44.622Z,93.83
2023-01-04T07:18:11.888Z,94.98
2023-01-04T07:20:39.175Z,92.52
2023-01-04T07:23:07.197Z,93.54
2023-01-04T07:25:34.185Z,92.02
2023-01-04T07:28:01.255Z,92.84
2023-01-04T07:30:28.028Z,92.08
2023-01-04T07:32:55.771Z,92.24
2023-01-04T07:35:23.594Z,90.71
2023-01-04T07:37:57.444Z,91.54
2023-01-04T07:42:59.264Z,90.54
2023-01-04T07:45:28.055Z,90.47
2023-01-04T07:47:54.861Z,90.29
2023-01-04T07:50:21.520Z,89.39
2023-01-04T07:52:48.293Z,88.25
2023-01-04T07:55:15.044Z,89.30
2023-01-04T07:57:41.757Z,87.85
2023-01-04T08:00:09.293Z,86.55
2023-01-04T08:02:36.018Z,86.01
2023-01-04T08:05:03.308Z,85.75
2023-01-04T08:07:30.331Z,85.75
2023-01-04T08:09:57.011Z,85.19
2023-01-04T08:12:23.959Z,84.60
2023-01-04T08:14:50.655Z,84.67
2023-01-04T08:17:17.329Z,83.30
2023-01-04T08:19:46.823Z,84.24
2023-01-04T08:22:14.167Z,83.65
2023-01-04T08:24:40.839Z,82.89
2023-01-04T08:27:08.514Z,83.12
2023-01-04T08:29:35.640Z,82.56
2023-01-04T08:32:02.759Z,82.65
2023-01-04T08:34:30.052Z,82.55
2023-01-04T08:36:56.940Z,81.93
2023-01-04T08:39:23.707Z,81.93
2023-01-04T08:42:00.776Z,81.41
2023-01-04T08:44:29.773Z,81.32
2023-01-04T08:46:56.767Z,80.96
2023-01-04T08:49:24.811Z,81.16
2023-01-04T08:51:51.632Z,81.54
2023-01-04T08:54:19.074Z,81.50
2023-01-04T08:56:45.781Z,81.62
2023-01-04T08:59:13.606Z,81.56
2023-01-04T09:01:41.429Z,81.48
2023-01-04T09:04:10.588Z,81.32
2023-01-04T09:06:38.672Z,81.80
2023-01-04T09:09:05.633Z,81.64
2023-01-04T09:11:32.328Z,81.74
2023-01-04T09:14:07.186Z,81.27
2023-01-04T09:16:35.654Z,81.59
2023-01-04T09:19:02.475Z,82.03
2023-01-04T09:21:29.534Z,81.40
2023-01-04T09:23:57.576Z,81.82
2023-01-04T09:26:24.482Z,81.37
2023-01-04T09:28:53.281Z,81.70
2023-01-04T09:31:23.296Z,81.35
2023-01-04T09:36:37.550Z,81.56
2023-01-04T09:39:04.669Z,80.99
2023-01-04T09:41:45.904Z,81.29
2023-01-04T09:44:46.276Z,81.34
2023-01-04T09:47:27.637Z,81.05
2023-01-04T09:50:05.753Z,81.12
2023-01-04T09:52:53.957Z,80.66
2023-01-04T09:55:38.250Z,81.04
2023-01-04T09:58:21.156Z,80.96
2023-01-04T10:00:59.479Z,80.91
2023-01-04T10:03:26.708Z,81.02
2023-01-04T10:05:55.552Z,80.92
2023-01-04T10:08:22.842Z,81.81
2023-01-04T10:10:52.304Z,81.80
2023-01-04T10:13:26.595Z,81.69
2023-01-04T10:16:17.369Z,82.19
2023-01-04T10:19:51.041Z,82.51
2023-01-04T10:21:51.566Z,82.31
2023-01-04T10:24:27.519Z,82.39
2023-01-04T10:27:04.132Z,82.29
2023-01-04T10:29:53.737Z,82.48
2023-01-04T10:32:27.633Z,82.30
2023-01-04T10:34:54.688Z,82.76
2023-01-04T10:37:25.282Z,82.62
2023-01-04T10:39:55.320Z,82.17
2023-01-04T10:45:09.524Z,82.06
2023-01-04T10:47:43.566Z,81.35
2023-01-04T10:50:26.642Z,80.98
2023-01-04T10:52:58.226Z,80.75
2023-01-04T10:55:27.543Z,80.13
2023-01-04T10:58:02.347Z,79.57
2023-01-04T11:00:37.605Z,79.65
2023-01-04T11:03:27.655Z,79.22
2023-01-04T11:06:23.592Z,78.67
2023-01-04T11:08:57.733Z,79.33
2023-01-04T11:11:26.599Z,79.22
2023-01-04T11:13:53.386Z,79.25
2023-01-04T11:16:20.584Z,79.46
2023-01-04T11:18:50.518Z,79.45
2023-01-04T11:21:21.419Z,79.29
2023-01-04T11:23:48.092Z,79.14
2023-01-04T11:28:57.843Z,79.22
2023-01-04T11:31:27.624Z,79.06
2023-01-04T11:33:57.770Z,79.62
2023-01-04T11:36:26.626Z,79.84
2023-01-04T11:38:56.468Z,80.15
2023-01-04T11:41:23.288Z,81.16
2023-01-04T11:44:06.236Z,81.63
2023-01-04T11:46:35.025Z,82.14
2023-01-04T11:49:01.916Z,82.71
2023-01-04T11:51:36.336Z,82.79
2023-01-04T11:54:15.158Z,83.62
2023-01-04T11:57:08.871Z,83.66
2023-01-04T11:59:38.178Z,84.45
2023-01-04T12:04:53.143Z,84.85
2023-01-04T12:07:27.550Z,85.12
2023-01-04T12:09:54.526Z,85.27
2023-01-04T12:12:21.811Z,85.58
2023-01-04T12:14:49.958Z,85.59
2023-01-04T12:17:27.599Z,86.01
2023-01-04T12:19:56.691Z,85.96
2023-01-04T12:22:26.648Z,86.09
2023-01-04T12:25:00.413Z,86.36
2023-01-04T12:27:27.895Z,85.94
2023-01-04T12:30:06.517Z,85.78
2023-01-04T12:32:33.118Z,85.98
2023-01-04T12:34:59.728Z,85.69
2023-01-04T12:37:26.659Z,86.57
2023-01-04T12:39:53.311Z,86.59
2023-01-04T12:42:24.744Z,86.66
2023-01-04T12:44:52.365Z,86.71
2023-01-04T12:47:27.649Z,87.08
2023-01-04T12:49:57.382Z,87.43
2023-01-04T12:52:38.161Z,87.94
2023-01-04T12:55:00.948Z,88.08
2023-01-04T12:57:38.434Z,88.50
2023-01-04T13:00:13.353Z,88.16
2023-01-04T13:02:47.968Z,88.50
2023-01-04T13:08:00.857Z,88.32
2023-01-04T13:10:27.545Z,88.29
2023-01-04T13:13:02.465Z,88.07
2023-01-04T13:15:47.359Z,88.06
2023-01-04T13:18:27.831Z,87.97
2023-01-04T13:20:55.753Z,87.91
2023-01-04T13:25:51.994Z,87.53
2023-01-04T13:28:19.330Z,87.32
2023-01-04T13:30:47.245Z,86.96
2023-01-04T13:33:27.339Z,86.90
2023-01-04T13:36:11.117Z,86.46
2023-01-04T13:38:40.264Z,86.28
2023-01-04T13:41:21.061Z,86.22
2023-01-04T13:44:10.479Z,86.15
2023-01-04T13:46:41.407Z,85.98
2023-01-04T13:49:12.200Z,86.27
2023-01-04T13:51:38.867Z,86.16
2023-01-04T13:54:17.322Z,86.60
2023-01-04T13:56:46.156Z,90.03
2023-01-04T13:59:16.903Z,91.63
2023-01-04T14:01:45.893Z,93.93
2023-01-04T14:06:54.552Z,97.75
2023-01-04T14:09:25.080Z,98.53
2023-01-04T14:12:09.383Z,100.00
2023-01-04T14:14:45.330Z,100.00
2023-01-04T14:17:27.691Z,100.00
2023-01-04T14:22:56.350Z,100.00
2023-01-04T14:25:27.712Z,100.00
2023-01-04T14:28:24.929Z,100.00
2023-01-04T14:31:16.904Z,100.00
2023-01-04T14:33:49.854Z,100.00
2023-01-04T14:36:27.803Z,100.00
2023-01-04T14:39:06.633Z,100.00
2023-01-04T14:41:44.731Z,100.00
2023-01-04T14:44:24.378Z,100.00
2023-01-04T14:46:53.761Z,100.00
2023-01-04T14:49:22.334Z,100.00
2023-01-04T14:52:19.273Z,100.00
2023-01-04T14:54:45.946Z,100.00
2023-01-04T14:57:12.714Z,100.00
2023-01-04T14:59:39.343Z,100.00
2023-01-04T15:02:06.372Z,99.83
2023-01-04T15:04:33.095Z,100.00
2023-01-04T15:07:00.799Z,100.00
2023-01-04T15:09:29.085Z,100.00
2023-01-04T15:11:56.391Z,100.00
2023-01-04T15:14:24.164Z,100.00
2023-01-04T15:16:50.887Z,100.00
2023-01-04T15:19:17.818Z,100.00
2023-01-04T15:21:44.997Z,100.00
2023-01-04T15:24:21.923Z,100.00
2023-01-04T15:26:49.546Z,100.00
2023-01-04T15:29:16.244Z,100.00
2023-01-04T15:31:44.214Z,100.00
2023-01-04T15:34:11.038Z,100.00
2023-01-04T15:36:41.117Z,100.00
2023-01-04T15:39:12.623Z,100.00
2023-01-04T15:41:58.139Z,100.00
2023-01-04T15:44:25.011Z,100.00
2023-01-04T15:46:53.166Z,100.00
2023-01-04T15:49:20.212Z,100.00
2023-01-04T15:51:47.354Z,100.00
2023-01-04T15:54:14.367Z,100.00
2023-01-04T15:56:41.077Z,100.00
2023-01-04T15:59:07.744Z,100.00
2023-01-04T16:01:34.699Z,100.00
2023-01-04T16:04:02.804Z,100.00
2023-01-04T16:06:29.652Z,100.00
2023-01-04T16:08:59.011Z,100.00
2023-01-04T16:13:52.919Z,100.00
2023-01-04T16:16:21.535Z,100.00
2023-01-04T16:18:50.852Z,100.00
2023-01-04T16:21:21.904Z,100.00
2023-01-04T16:23:57.016Z,100.00
2023-01-04T16:26:27.866Z,100.00
2023-01-04T16:28:55.518Z,100.00
2023-01-04T16:31:22.648Z,100.00
2023-01-04T16:33:53.527Z,100.00
2023-01-04T16:36:20.313Z,100.00
2023-01-04T16:38:47.106Z,100.00
2023-01-04T16:41:16.671Z,100.00
2023-01-04T16:43:46.665Z,100.00
2023-01-04T16:46:13.344Z,100.00
2023-01-04T16:48:44.664Z,100.00
2023-01-04T16:51:12.366Z,100.00
2023-01-04T16:53:39.629Z,100.00
2023-01-04T16:56:08.004Z,100.00
2023-01-04T16:58:35.464Z,100.00
2023-01-04T17:01:13.147Z,100.00
2023-01-04T17:03:40.943Z,100.00
2023-01-04T17:06:10.156Z,100.00
2023-01-04T17:08:37.151Z,100.00
2023-01-04T17:11:56.320Z,100.00
2023-01-04T17:13:52.277Z,100.00
2023-01-04T17:16:21.514Z,99.89
2023-01-04T17:18:53.443Z,100.00
2023-01-04T17:21:33.815Z,99.00
2023-01-04T17:23:54.175Z,99.73
2023-01-04T17:28:53.190Z,99.30
2023-01-04T17:31:27.961Z,98.41
2023-01-04T17:33:54.722Z,98.60
2023-01-04T17:36:22.061Z,98.66
2023-01-04T17:38:50.257Z,98.07
2023-01-04T17:41:20.516Z,96.64
2023-01-04T17:43:50.482Z,97.69
2023-01-04T17:46:23.061Z,97.18
2023-01-04T17:49:17.846Z,97.01
2023-01-04T17:51:40.284Z,97.20
2023-01-04T17:54:07.564Z,97.34
2023-01-04T17:56:37.417Z,96.89
2023-01-04T17:59:07.105Z,96.96
2023-01-04T18:01:34.991Z,96.99
2023-01-04T18:04:03.214Z,96.67
2023-01-04T18:06:33.292Z,96.91
2023-01-04T18:09:01.204Z,96.74
2023-01-04T18:11:28.802Z,96.98
2023-01-04T18:13:55.665Z,96.64
2023-01-04T18:18:57.584Z,94.85
2023-01-04T18:21:29.343Z,95.60
2023-01-04T18:24:34.934Z,95.66
2023-01-04T18:29:35.549Z,96.28
2023-01-04T18:32:02.619Z,95.72
2023-01-04T18:34:29.415Z,95.71
2023-01-04T18:36:56.273Z,95.47
2023-01-04T18:39:22.952Z,94.57
2023-01-04T18:41:49.732Z,95.63
2023-01-04T18:44:33.946Z,95.43
2023-01-04T18:46:52.883Z,95.62
2023-01-04T18:49:19.793Z,95.31
2023-01-04T18:51:46.559Z,95.60
2023-01-04T18:54:20.758Z,95.72
2023-01-04T18:56:48.023Z,94.74
2023-01-04T18:59:17.545Z,94.79
2023-01-04T19:01:45.628Z,93.70
2023-01-04T19:04:13.311Z,93.44
2023-01-04T19:06:41.309Z,93.49
2023-01-04T19:09:08.637Z,92.28
2023-01-04T19:11:36.447Z,92.35
2023-01-04T19:14:04.223Z,92.28
2023-01-04T19:16:31.883Z,92.24
2023-01-04T19:19:01.789Z,92.96
2023-01-04T19:21:29.305Z,92.48
2023-01-04T19:23:56.458Z,92.51
2023-01-04T19:26:24.216Z,92.81
2023-01-04T19:28:51.583Z,92.42
2023-01-04T19:31:20.674Z,92.10
2023-01-04T19:33:48.184Z,91.77
2023-01-04T19:36:17.952Z,91.17
2023-01-04T19:38:44.776Z,91.91
2023-01-04T19:41:29.130Z,91.58
2023-01-04T19:43:52.151Z,91.66
2023-01-04T19:46:19.352Z,91.42
2023-01-04T19:48:46.097Z,91.68
2023-01-04T19:51:16.694Z,90.95
2023-01-04T19:53:44.507Z,91.30
2023-01-04T19:56:13.357Z,91.55
2023-01-04T19:58:40.312Z,91.01
2023-01-04T20:01:07.363Z,90.62
2023-01-04T20:03:34.818Z,91.07
2023-01-04T20:06:06.100Z,91.57
2023-01-04T20:08:33.589Z,91.61
2023-01-04T20:11:01.648Z,91.24
2023-01-04T20:13:30.521Z,91.60
2023-01-04T20:15:57.309Z,91.37
2023-01-04T20:18:24.340Z,91.16
2023-01-04T20:20:52.409Z,91.10
2023-01-04T20:23:19.734Z,91.07
2023-01-04T20:25:50.402Z,91.11
2023-01-04T20:28:19.842Z,91.04
2023-01-04T20:30:47.972Z,91.22
2023-01-04T20:33:15.271Z,90.61
2023-01-04T20:35:43.809Z,91.36
2023-01-04T20:38:11.826Z,92.64
2023-01-04T20:40:39.356Z,93.13
2023-01-04T20:43:24.859Z,93.35
2023-01-04T20:45:51.725Z,93.57
2023-01-04T20:48:18.572Z,94.77
2023-01-04T20:50:45.436Z,95.61
2023-01-04T20:53:13.676Z,96.05
2023-01-04T20:55:42.126Z,96.65
2023-01-04T20:58:10.620Z,95.88
2023-01-04T21:00:38.407Z,97.20
2023-01-04T21:03:07.286Z,96.48
2023-01-04T21:05:38.883Z,96.89
2023-01-04T21:08:07.635Z,96.27
2023-01-04T21:10:35.975Z,96.28
2023-01-04T21:13:03.886Z,95.12
2023-01-04T21:15:30.765Z,94.56
2023-01-04T21:17:57.743Z,94.36
2023-01-04T21:20:25.030Z,95.58
2023-01-04T21:22:51.708Z,95.76
2023-01-04T21:25:18.666Z,96.14
2023-01-04T21:27:45.645Z,95.28
2023-01-04T21:30:12.918Z,95.40
2023-01-04T21:32:39.610Z,94.64
2023-01-04T21:35:07.098Z,93.73
2023-01-04T21:37:33.875Z,94.64
2023-01-04T21:40:00.622Z,93.85
2023-01-04T21:42:27.391Z,94.17
2023-01-04T21:44:54.092Z,94.15
2023-01-04T21:47:20.941Z,94.41
2023-01-04T21:49:47.705Z,93.62
2023-01-04T21:52:14.438Z,93.76
2023-01-04T21:54:41.089Z,92.69
2023-01-04T21:57:08.267Z,92.76
2023-01-04T21:59:36.046Z,92.99
2023-01-04T22:02:03.344Z,92.94
2023-01-04T22:04:30.799Z,92.68
2023-01-04T22:06:57.898Z,92.70
2023-01-04T22:09:25.279Z,91.82
2023-01-04T22:11:52.282Z,91.66
2023-01-04T22:14:19.243Z,91.31
2023-01-04T22:16:46.392Z,91.00
2023-01-04T22:19:13.863Z,90.63
2023-01-04T22:21:41.595Z,90.89
2023-01-04T22:24:12.166Z,90.83
2023-01-04T22:26:39.808Z,90.14
2023-01-04T22:29:06.553Z,91.07
2023-01-04T22:31:33.510Z,90.92
2023-01-04T22:34:00.562Z,91.64
2023-01-04T22:36:28.256Z,92.05
2023-01-04T22:38:57.092Z,93.13
2023-01-04T22:44:04.386Z,93.22
2023-01-04T22:46:32.887Z,92.70
2023-01-04T22:49:00.665Z,92.53
2023-01-04T22:51:29.151Z,92.69
2023-01-04T22:53:57.646Z,93.24
2023-01-04T22:56:25.138Z,93.23
2023-01-04T22:58:55.351Z,93.13
2023-01-04T23:01:24.547Z,93.23
2023-01-04T23:03:52.220Z,93.87
2023-01-04T23:06:19.431Z,94.04
2023-01-04T23:08:46.377Z,96.50
2023-01-04T23:11:16.395Z,96.93
2023-01-04T23:13:43.451Z,97.80
2023-01-04T23:16:12.962Z,98.53
2023-01-04T23:18:40.141Z,100.00
2023-01-04T23:21:07.583Z,99.33
2023-01-04T23:23:34.297Z,99.63
2023-01-04T23:26:06.288Z,100.00
2023-01-04T23:28:33.084Z,99.96
2023-01-04T23:31:05.262Z,100.00
2023-01-04T23:33:35.985Z,99.76
2023-01-04T23:36:25.101Z,99.56
2023-01-04T23:38:55.142Z,99.88
2023-01-04T23:41:27.942Z,100.00
2023-01-04T23:43:54.794Z,99.35
2023-01-04T23:46:21.565Z,100.00
2023-01-04T23:48:48.376Z,100.00
2023-01-04T23:51:15.334Z,100.00
2023-01-04T23:53:42.115Z,100.00
2023-01-04T23:56:15.298Z,100.00
2023-01-04T23:58:42.241Z,100.00
